sensor_id;sensor_type;location;lat;lon;timestamp;temperature;humidity
15630;DHT22;7914;50.842;0.166;2024-01-30T00:01:52;10.80;100.00
15630;DHT22;7914;50.842;0.166;2024-01-30T00:04:18;10.80;100.00
15630;DHT22;7914;50.842;0.166;2024-01-30T00:06:44;10.90;100.00
15630;DHT22;7914;50.842;0.166;2024-01-30T00:09:10;10.90;100.00
15630;DHT22;7914;50.842;0.166;2024-01-30T00:11:39;10.90;100.00
15630;DHT22;7914;50.842;0.166;2024-01-30T00:14:05;10.90;100.00
15630;DHT22;7914;50.842;0.166;2024-01-30T00:16:31;11.00;100.00
15630;DHT22;7914;50.842;0.166;2024-01-30T00:18:57;11.00;100.00
15630;DHT22;7914;50.842;0.166;2024-01-30T00:21:23;11.00;100.00
15630;DHT22;7914;50.842;0.166;2024-01-30T00:23:49;11.10;100.00
15630;DHT22;7914;50.842;0.166;2024-01-30T00:26:14;11.10;100.00
15630;DHT22;7914;50.842;0.166;2024-01-30T00:28:41;11.10;100.00
15630;DHT22;7914;50.842;0.166;2024-01-30T00:31:07;11.10;100.00
15630;DHT22;7914;50.842;0.166;2024-01-30T00:33:33;11.10;100.00
15630;DHT22;7914;50.842;0.166;2024-01-30T00:35:59;11.10;100.00
15630;DHT22;7914;50.842;0.166;2024-01-30T00:38:24;11.00;100.00
15630;DHT22;7914;50.842;0.166;2024-01-30T00:40:50;11.00;100.00
15630;DHT22;7914;50.842;0.166;2024-01-30T00:43:16;11.10;100.00
15630;DHT22;7914;50.842;0.166;2024-01-30T00:45:44;11.10;100.00
15630;DHT22;7914;50.842;0.166;2024-01-30T00:48:10;11.00;100.00
15630;DHT22;7914;50.842;0.166;2024-01-30T00:50:35;11.00;100.00
15630;DHT22;7914;50.842;0.166;2024-01-30T00:53:02;10.90;100.00
15630;DHT22;7914;50.842;0.166;2024-01-30T00:55:28;10.90;100.00
15630;DHT22;7914;50.842;0.166;2024-01-30T00:57:57;10.90;100.00
15630;DHT22;7914;50.842;0.166;2024-01-30T01:00:22;10.90;100.00
15630;DHT22;7914;50.842;0.166;2024-01-30T01:02:57;10.90;100.00
15630;DHT22;7914;50.842;0.166;2024-01-30T01:05:23;10.90;100.00
15630;DHT22;7914;50.842;0.166;2024-01-30T01:07:48;11.00;100.00
15630;DHT22;7914;50.842;0.166;2024-01-30T01:10:15;11.00;100.00
15630;DHT22;7914;50.842;0.166;2024-01-30T01:12:41;11.00;100.00
15630;DHT22;7914;50.842;0.166;2024-01-30T01:15:08;10.90;100.00
15630;DHT22;7914;50.842;0.166;2024-01-30T01:17:39;10.90;100.00
15630;DHT22;7914;50.842;0.166;2024-01-30T01:20:06;10.90;100.00
15630;DHT22;7914;50.842;0.166;2024-01-30T01:22:32;10.90;100.00
15630;DHT22;7914;50.842;0.166;2024-01-30T01:24:59;10.90;100.00
15630;DHT22;7914;50.842;0.166;2024-01-30T01:27:25;10.90;100.00
15630;DHT22;7914;50.842;0.166;2024-01-30T01:29:51;10.80;100.00
15630;DHT22;7914;50.842;0.166;2024-01-30T01:32:17;10.80;100.00
15630;DHT22;7914;50.842;0.166;2024-01-30T01:34:43;10.70;100.00
15630;DHT22;7914;50.842;0.166;2024-01-30T01:37:09;10.70;100.00
15630;DHT22;7914;50.842;0.166;2024-01-30T01:39:35;10.60;100.00
15630;DHT22;7914;50.842;0.166;2024-01-30T01:42:00;10.60;100.00
15630;DHT22;7914;50.842;0.166;2024-01-30T01:44:27;10.50;100.00
15630;DHT22;7914;50.842;0.166;2024-01-30T01:46:54;10.50;100.00
15630;DHT22;7914;50.842;0.166;2024-01-30T01:49:23;10.50;100.00
15630;DHT22;7914;50.842;0.166;2024-01-30T01:51:51;10.40;100.00
15630;DHT22;7914;50.842;0.166;2024-01-30T01:54:18;10.40;100.00
15630;DHT22;7914;50.842;0.166;2024-01-30T01:56:45;10.30;100.00
15630;DHT22;7914;50.842;0.166;2024-01-30T01:59:10;10.20;100.00
15630;DHT22;7914;50.842;0.166;2024-01-30T02:01:37;10.20;100.00
15630;DHT22;7914;50.842;0.166;2024-01-30T02:04:03;10.20;100.00
15630;DHT22;7914;50.842;0.166;2024-01-30T02:06:29;10.20;100.00
15630;DHT22;7914;50.842;0.166;2024-01-30T02:08:55;10.10;100.00
15630;DHT22;7914;50.842;0.166;2024-01-30T02:11:22;10.10;100.00
15630;DHT22;7914;50.842;0.166;2024-01-30T02:13:48;10.10;100.00
15630;DHT22;7914;50.842;0.166;2024-01-30T02:16:14;10.10;100.00
15630;DHT22;7914;50.842;0.166;2024-01-30T02:18:40;10.10;100.00
15630;DHT22;7914;50.842;0.166;2024-01-30T02:21:16;10.00;100.00
15630;DHT22;7914;50.842;0.166;2024-01-30T02:23:46;10.00;100.00
15630;DHT22;7914;50.842;0.166;2024-01-30T02:26:12;10.00;100.00
15630;DHT22;7914;50.842;0.166;2024-01-30T02:28:38;10.00;100.00
15630;DHT22;7914;50.842;0.166;2024-01-30T02:31:04;10.00;100.00
15630;DHT22;7914;50.842;0.166;2024-01-30T02:33:30;9.90;100.00
15630;DHT22;7914;50.842;0.166;2024-01-30T02:35:56;9.90;100.00
15630;DHT22;7914;50.842;0.166;2024-01-30T02:38:21;9.90;100.00
15630;DHT22;7914;50.842;0.166;2024-01-30T02:40:48;9.90;100.00
15630;DHT22;7914;50.842;0.166;2024-01-30T02:43:15;9.80;100.00
15630;DHT22;7914;50.842;0.166;2024-01-30T02:45:41;9.80;100.00
15630;DHT22;7914;50.842;0.166;2024-01-30T02:48:07;9.90;100.00
15630;DHT22;7914;50.842;0.166;2024-01-30T02:50:32;9.90;100.00
15630;DHT22;7914;50.842;0.166;2024-01-30T02:52:58;9.80;100.00
15630;DHT22;7914;50.842;0.166;2024-01-30T02:55:24;9.80;100.00
15630;DHT22;7914;50.842;0.166;2024-01-30T02:57:49;9.70;100.00
15630;DHT22;7914;50.842;0.166;2024-01-30T03:00:15;9.70;100.00
15630;DHT22;7914;50.842;0.166;2024-01-30T03:02:41;9.60;100.00
15630;DHT22;7914;50.842;0.166;2024-01-30T03:05:08;9.50;100.00
15630;DHT22;7914;50.842;0.166;2024-01-30T03:07:34;9.60;100.00
15630;DHT22;7914;50.842;0.166;2024-01-30T03:10:00;9.50;100.00
15630;DHT22;7914;50.842;0.166;2024-01-30T03:12:26;9.50;100.00
15630;DHT22;7914;50.842;0.166;2024-01-30T03:14:51;9.50;100.00
15630;DHT22;7914;50.842;0.166;2024-01-30T03:17:18;9.40;100.00
15630;DHT22;7914;50.842;0.166;2024-01-30T03:19:43;9.40;100.00
15630;DHT22;7914;50.842;0.166;2024-01-30T03:22:09;9.30;100.00
15630;DHT22;7914;50.842;0.166;2024-01-30T03:24:35;9.30;100.00
15630;DHT22;7914;50.842;0.166;2024-01-30T03:27:01;9.30;100.00
15630;DHT22;7914;50.842;0.166;2024-01-30T03:29:26;9.30;100.00
15630;DHT22;7914;50.842;0.166;2024-01-30T03:31:52;9.30;100.00
15630;DHT22;7914;50.842;0.166;2024-01-30T03:34:18;9.30;100.00
15630;DHT22;7914;50.842;0.166;2024-01-30T03:36:44;9.30;100.00
15630;DHT22;7914;50.842;0.166;2024-01-30T03:39:09;9.30;100.00
15630;DHT22;7914;50.842;0.166;2024-01-30T03:41:35;9.20;100.00
15630;DHT22;7914;50.842;0.166;2024-01-30T03:44:02;9.20;100.00
15630;DHT22;7914;50.842;0.166;2024-01-30T03:46:27;9.10;100.00
15630;DHT22;7914;50.842;0.166;2024-01-30T03:48:53;9.10;100.00
15630;DHT22;7914;50.842;0.166;2024-01-30T03:51:19;9.10;100.00
15630;DHT22;7914;50.842;0.166;2024-01-30T03:53:45;9.00;100.00
15630;DHT22;7914;50.842;0.166;2024-01-30T03:56:14;9.10;100.00
15630;DHT22;7914;50.842;0.166;2024-01-30T03:58:40;9.10;100.00
15630;DHT22;7914;50.842;0.166;2024-01-30T04:01:05;9.00;100.00
15630;DHT22;7914;50.842;0.166;2024-01-30T04:03:31;9.00;100.00
15630;DHT22;7914;50.842;0.166;2024-01-30T04:05:57;9.00;100.00
15630;DHT22;7914;50.842;0.166;2024-01-30T04:08:22;9.00;100.00
15630;DHT22;7914;50.842;0.166;2024-01-30T04:10:48;8.90;100.00
15630;DHT22;7914;50.842;0.166;2024-01-30T04:13:14;8.90;100.00
15630;DHT22;7914;50.842;0.166;2024-01-30T04:15:40;8.90;100.00
15630;DHT22;7914;50.842;0.166;2024-01-30T04:18:06;8.90;100.00
15630;DHT22;7914;50.842;0.166;2024-01-30T04:20:32;8.90;100.00
15630;DHT22;7914;50.842;0.166;2024-01-30T04:22:57;8.90;100.00
15630;DHT22;7914;50.842;0.166;2024-01-30T04:25:23;8.90;100.00
15630;DHT22;7914;50.842;0.166;2024-01-30T04:27:49;8.90;100.00
15630;DHT22;7914;50.842;0.166;2024-01-30T04:30:15;8.90;100.00
15630;DHT22;7914;50.842;0.166;2024-01-30T04:32:41;8.80;100.00
15630;DHT22;7914;50.842;0.166;2024-01-30T04:35:07;8.80;100.00
15630;DHT22;7914;50.842;0.166;2024-01-30T04:37:32;8.80;100.00
15630;DHT22;7914;50.842;0.166;2024-01-30T04:39:58;8.80;100.00
15630;DHT22;7914;50.842;0.166;2024-01-30T04:42:24;8.80;100.00
15630;DHT22;7914;50.842;0.166;2024-01-30T04:44:50;8.60;100.00
15630;DHT22;7914;50.842;0.166;2024-01-30T04:47:16;8.60;100.00
15630;DHT22;7914;50.842;0.166;2024-01-30T04:49:42;8.50;100.00
15630;DHT22;7914;50.842;0.166;2024-01-30T04:52:08;8.50;100.00
15630;DHT22;7914;50.842;0.166;2024-01-30T04:54:35;8.50;100.00
15630;DHT22;7914;50.842;0.166;2024-01-30T04:57:01;8.50;100.00
15630;DHT22;7914;50.842;0.166;2024-01-30T04:59:27;8.50;100.00
15630;DHT22;7914;50.842;0.166;2024-01-30T05:01:53;8.60;100.00
15630;DHT22;7914;50.842;0.166;2024-01-30T05:04:19;8.60;100.00
15630;DHT22;7914;50.842;0.166;2024-01-30T05:06:44;8.60;100.00
15630;DHT22;7914;50.842;0.166;2024-01-30T05:09:10;8.60;100.00
15630;DHT22;7914;50.842;0.166;2024-01-30T05:11:40;8.60;100.00
15630;DHT22;7914;50.842;0.166;2024-01-30T05:14:06;8.60;100.00
15630;DHT22;7914;50.842;0.166;2024-01-30T05:16:32;8.60;100.00
15630;DHT22;7914;50.842;0.166;2024-01-30T05:18:58;8.60;100.00
15630;DHT22;7914;50.842;0.166;2024-01-30T05:21:24;8.60;100.00
15630;DHT22;7914;50.842;0.166;2024-01-30T05:23:50;8.50;100.00
15630;DHT22;7914;50.842;0.166;2024-01-30T05:26:16;8.50;100.00
15630;DHT22;7914;50.842;0.166;2024-01-30T05:28:42;8.40;100.00
15630;DHT22;7914;50.842;0.166;2024-01-30T05:31:10;8.40;100.00
15630;DHT22;7914;50.842;0.166;2024-01-30T05:33:36;8.30;100.00
15630;DHT22;7914;50.842;0.166;2024-01-30T05:36:02;8.30;100.00
15630;DHT22;7914;50.842;0.166;2024-01-30T05:38:28;8.30;100.00
15630;DHT22;7914;50.842;0.166;2024-01-30T05:40:54;8.30;100.00
15630;DHT22;7914;50.842;0.166;2024-01-30T05:43:20;8.30;100.00
15630;DHT22;7914;50.842;0.166;2024-01-30T05:45:46;8.30;100.00
15630;DHT22;7914;50.842;0.166;2024-01-30T05:48:12;8.30;100.00
15630;DHT22;7914;50.842;0.166;2024-01-30T05:50:37;8.30;100.00
15630;DHT22;7914;50.842;0.166;2024-01-30T05:53:03;8.30;100.00
15630;DHT22;7914;50.842;0.166;2024-01-30T05:55:29;8.30;100.00
15630;DHT22;7914;50.842;0.166;2024-01-30T05:57:54;8.30;100.00
15630;DHT22;7914;50.842;0.166;2024-01-30T06:00:21;8.30;100.00
15630;DHT22;7914;50.842;0.166;2024-01-30T06:02:46;8.30;100.00
15630;DHT22;7914;50.842;0.166;2024-01-30T06:05:12;8.30;100.00
15630;DHT22;7914;50.842;0.166;2024-01-30T06:07:38;8.30;100.00
15630;DHT22;7914;50.842;0.166;2024-01-30T06:10:04;8.30;100.00
15630;DHT22;7914;50.842;0.166;2024-01-30T06:12:30;8.30;100.00
15630;DHT22;7914;50.842;0.166;2024-01-30T06:14:55;8.30;100.00
15630;DHT22;7914;50.842;0.166;2024-01-30T06:17:23;8.40;100.00
15630;DHT22;7914;50.842;0.166;2024-01-30T06:19:49;8.40;100.00
15630;DHT22;7914;50.842;0.166;2024-01-30T06:22:15;8.50;100.00
15630;DHT22;7914;50.842;0.166;2024-01-30T06:24:41;8.50;100.00
15630;DHT22;7914;50.842;0.166;2024-01-30T06:27:07;8.40;100.00
15630;DHT22;7914;50.842;0.166;2024-01-30T06:29:33;8.50;100.00
15630;DHT22;7914;50.842;0.166;2024-01-30T06:31:59;8.50;100.00
15630;DHT22;7914;50.842;0.166;2024-01-30T06:34:24;8.50;100.00
15630;DHT22;7914;50.842;0.166;2024-01-30T06:36:52;8.60;100.00
15630;DHT22;7914;50.842;0.166;2024-01-30T06:39:17;8.50;100.00
15630;DHT22;7914;50.842;0.166;2024-01-30T06:41:43;8.60;100.00
15630;DHT22;7914;50.842;0.166;2024-01-30T06:44:12;8.60;100.00
15630;DHT22;7914;50.842;0.166;2024-01-30T06:46:38;8.60;100.00
15630;DHT22;7914;50.842;0.166;2024-01-30T06:49:04;8.50;100.00
15630;DHT22;7914;50.842;0.166;2024-01-30T06:51:30;8.60;100.00
15630;DHT22;7914;50.842;0.166;2024-01-30T06:53:56;8.50;100.00
15630;DHT22;7914;50.842;0.166;2024-01-30T06:56:21;8.60;100.00
15630;DHT22;7914;50.842;0.166;2024-01-30T06:58:50;8.50;100.00
15630;DHT22;7914;50.842;0.166;2024-01-30T07:01:16;8.50;100.00
15630;DHT22;7914;50.842;0.166;2024-01-30T07:03:42;8.50;100.00
15630;DHT22;7914;50.842;0.166;2024-01-30T07:06:09;8.50;100.00
15630;DHT22;7914;50.842;0.166;2024-01-30T07:08:36;8.50;100.00
15630;DHT22;7914;50.842;0.166;2024-01-30T07:11:05;8.40;100.00
15630;DHT22;7914;50.842;0.166;2024-01-30T07:13:31;8.40;100.00
15630;DHT22;7914;50.842;0.166;2024-01-30T07:15:56;8.40;100.00
15630;DHT22;7914;50.842;0.166;2024-01-30T07:18:22;8.30;100.00
15630;DHT22;7914;50.842;0.166;2024-01-30T07:20:48;8.30;100.00
15630;DHT22;7914;50.842;0.166;2024-01-30T07:23:15;8.30;100.00
15630;DHT22;7914;50.842;0.166;2024-01-30T07:25:46;8.30;100.00
15630;DHT22;7914;50.842;0.166;2024-01-30T07:28:14;8.30;100.00
15630;DHT22;7914;50.842;0.166;2024-01-30T07:30:42;8.30;100.00
15630;DHT22;7914;50.842;0.166;2024-01-30T07:33:08;8.30;100.00
15630;DHT22;7914;50.842;0.166;2024-01-30T07:35:34;8.20;100.00
15630;DHT22;7914;50.842;0.166;2024-01-30T07:38:00;8.20;100.00
15630;DHT22;7914;50.842;0.166;2024-01-30T07:40:26;8.30;100.00
15630;DHT22;7914;50.842;0.166;2024-01-30T07:42:53;8.30;100.00
15630;DHT22;7914;50.842;0.166;2024-01-30T07:45:19;8.30;100.00
15630;DHT22;7914;50.842;0.166;2024-01-30T07:47:49;8.20;100.00
15630;DHT22;7914;50.842;0.166;2024-01-30T07:50:14;8.20;100.00
15630;DHT22;7914;50.842;0.166;2024-01-30T07:52:40;8.20;100.00
15630;DHT22;7914;50.842;0.166;2024-01-30T07:55:06;8.20;100.00
15630;DHT22;7914;50.842;0.166;2024-01-30T07:57:33;8.20;100.00
15630;DHT22;7914;50.842;0.166;2024-01-30T08:00:00;8.20;100.00
15630;DHT22;7914;50.842;0.166;2024-01-30T08:02:25;8.20;100.00
15630;DHT22;7914;50.842;0.166;2024-01-30T08:04:51;8.20;100.00
15630;DHT22;7914;50.842;0.166;2024-01-30T08:07:17;8.20;100.00
15630;DHT22;7914;50.842;0.166;2024-01-30T08:09:43;8.20;100.00
15630;DHT22;7914;50.842;0.166;2024-01-30T08:12:09;8.20;100.00
15630;DHT22;7914;50.842;0.166;2024-01-30T08:17:53;8.20;100.00
15630;DHT22;7914;50.842;0.166;2024-01-30T08:20:24;8.20;100.00
15630;DHT22;7914;50.842;0.166;2024-01-30T08:22:50;8.20;100.00
15630;DHT22;7914;50.842;0.166;2024-01-30T08:25:15;8.10;100.00
15630;DHT22;7914;50.842;0.166;2024-01-30T08:27:41;8.20;100.00
15630;DHT22;7914;50.842;0.166;2024-01-30T08:30:07;8.20;100.00
15630;DHT22;7914;50.842;0.166;2024-01-30T08:32:33;8.20;100.00
15630;DHT22;7914;50.842;0.166;2024-01-30T08:34:59;8.20;100.00
15630;DHT22;7914;50.842;0.166;2024-01-30T08:37:25;8.10;100.00
15630;DHT22;7914;50.842;0.166;2024-01-30T08:39:51;8.20;100.00
15630;DHT22;7914;50.842;0.166;2024-01-30T08:42:17;8.20;100.00
15630;DHT22;7914;50.842;0.166;2024-01-30T08:44:48;8.20;100.00
15630;DHT22;7914;50.842;0.166;2024-01-30T08:47:14;8.20;100.00
15630;DHT22;7914;50.842;0.166;2024-01-30T08:49:41;8.20;100.00
15630;DHT22;7914;50.842;0.166;2024-01-30T08:52:12;8.10;100.00
15630;DHT22;7914;50.842;0.166;2024-01-30T08:54:38;8.10;100.00
15630;DHT22;7914;50.842;0.166;2024-01-30T08:57:04;8.20;100.00
15630;DHT22;7914;50.842;0.166;2024-01-30T08:59:30;8.20;100.00
15630;DHT22;7914;50.842;0.166;2024-01-30T09:01:55;8.10;100.00
15630;DHT22;7914;50.842;0.166;2024-01-30T09:04:23;8.10;100.00
15630;DHT22;7914;50.842;0.166;2024-01-30T09:06:49;8.20;100.00
15630;DHT22;7914;50.842;0.166;2024-01-30T09:09:15;8.20;100.00
15630;DHT22;7914;50.842;0.166;2024-01-30T09:11:41;8.20;100.00
15630;DHT22;7914;50.842;0.166;2024-01-30T09:14:07;8.20;100.00
15630;DHT22;7914;50.842;0.166;2024-01-30T09:16:32;8.20;100.00
15630;DHT22;7914;50.842;0.166;2024-01-30T09:18:58;8.20;100.00
15630;DHT22;7914;50.842;0.166;2024-01-30T09:21:24;8.20;100.00
15630;DHT22;7914;50.842;0.166;2024-01-30T09:23:51;8.20;100.00
15630;DHT22;7914;50.842;0.166;2024-01-30T09:26:17;8.20;100.00
15630;DHT22;7914;50.842;0.166;2024-01-30T09:28:43;8.20;100.00
15630;DHT22;7914;50.842;0.166;2024-01-30T09:31:12;8.30;100.00
15630;DHT22;7914;50.842;0.166;2024-01-30T09:33:38;8.30;100.00
15630;DHT22;7914;50.842;0.166;2024-01-30T09:36:05;8.40;100.00
15630;DHT22;7914;50.842;0.166;2024-01-30T09:38:31;8.40;100.00
15630;DHT22;7914;50.842;0.166;2024-01-30T09:41:01;8.40;100.00
15630;DHT22;7914;50.842;0.166;2024-01-30T09:43:33;8.40;100.00
15630;DHT22;7914;50.842;0.166;2024-01-30T09:46:01;8.40;100.00
15630;DHT22;7914;50.842;0.166;2024-01-30T09:48:29;8.50;100.00
15630;DHT22;7914;50.842;0.166;2024-01-30T09:50:57;8.50;100.00
15630;DHT22;7914;50.842;0.166;2024-01-30T09:53:23;8.60;100.00
15630;DHT22;7914;50.842;0.166;2024-01-30T09:55:50;8.60;100.00
15630;DHT22;7914;50.842;0.166;2024-01-30T09:58:16;8.60;100.00
15630;DHT22;7914;50.842;0.166;2024-01-30T10:00:42;8.80;100.00
15630;DHT22;7914;50.842;0.166;2024-01-30T10:03:08;8.80;100.00
15630;DHT22;7914;50.842;0.166;2024-01-30T10:05:35;8.80;100.00
15630;DHT22;7914;50.842;0.166;2024-01-30T10:08:06;8.90;100.00
15630;DHT22;7914;50.842;0.166;2024-01-30T10:10:32;9.00;100.00
15630;DHT22;7914;50.842;0.166;2024-01-30T10:12:57;8.90;100.00
15630;DHT22;7914;50.842;0.166;2024-01-30T10:15:24;8.90;100.00
15630;DHT22;7914;50.842;0.166;2024-01-30T10:17:51;8.90;100.00
15630;DHT22;7914;50.842;0.166;2024-01-30T10:20:16;8.90;100.00
15630;DHT22;7914;50.842;0.166;2024-01-30T10:22:44;8.90;100.00
15630;DHT22;7914;50.842;0.166;2024-01-30T10:25:11;8.90;100.00
15630;DHT22;7914;50.842;0.166;2024-01-30T10:27:39;9.00;100.00
15630;DHT22;7914;50.842;0.166;2024-01-30T10:30:05;9.10;100.00
15630;DHT22;7914;50.842;0.166;2024-01-30T10:32:31;9.10;100.00
15630;DHT22;7914;50.842;0.166;2024-01-30T10:34:57;9.00;100.00
15630;DHT22;7914;50.842;0.166;2024-01-30T10:37:25;9.00;100.00
15630;DHT22;7914;50.842;0.166;2024-01-30T10:39:53;9.00;100.00
15630;DHT22;7914;50.842;0.166;2024-01-30T10:42:19;9.00;100.00
15630;DHT22;7914;50.842;0.166;2024-01-30T10:45:07;9.00;100.00
15630;DHT22;7914;50.842;0.166;2024-01-30T10:47:43;9.00;100.00
15630;DHT22;7914;50.842;0.166;2024-01-30T10:50:09;9.00;100.00
15630;DHT22;7914;50.842;0.166;2024-01-30T10:52:36;9.10;100.00
15630;DHT22;7914;50.842;0.166;2024-01-30T10:55:04;9.10;100.00
15630;DHT22;7914;50.842;0.166;2024-01-30T10:57:34;9.00;100.00
15630;DHT22;7914;50.842;0.166;2024-01-30T11:00:05;9.00;100.00
15630;DHT22;7914;50.842;0.166;2024-01-30T11:02:40;8.90;100.00
15630;DHT22;7914;50.842;0.166;2024-01-30T11:05:07;8.90;100.00
15630;DHT22;7914;50.842;0.166;2024-01-30T11:07:34;8.80;100.00
15630;DHT22;7914;50.842;0.166;2024-01-30T11:10:03;8.80;100.00
15630;DHT22;7914;50.842;0.166;2024-01-30T11:12:31;8.80;100.00
15630;DHT22;7914;50.842;0.166;2024-01-30T11:15:07;9.00;100.00
15630;DHT22;7914;50.842;0.166;2024-01-30T11:20:25;9.10;100.00
15630;DHT22;7914;50.842;0.166;2024-01-30T11:22:52;9.10;100.00
15630;DHT22;7914;50.842;0.166;2024-01-30T11:25:22;9.10;100.00
15630;DHT22;7914;50.842;0.166;2024-01-30T11:27:55;9.10;100.00
15630;DHT22;7914;50.842;0.166;2024-01-30T11:30:28;9.10;100.00
15630;DHT22;7914;50.842;0.166;2024-01-30T11:33:06;9.00;100.00
15630;DHT22;7914;50.842;0.166;2024-01-30T11:35:33;9.00;100.00
15630;DHT22;7914;50.842;0.166;2024-01-30T11:38:00;9.00;100.00
15630;DHT22;7914;50.842;0.166;2024-01-30T11:40:28;8.90;100.00
15630;DHT22;7914;50.842;0.166;2024-01-30T11:42:55;8.90;100.00
15630;DHT22;7914;50.842;0.166;2024-01-30T11:45:21;9.00;100.00
15630;DHT22;7914;50.842;0.166;2024-01-30T11:47:47;9.00;100.00
15630;DHT22;7914;50.842;0.166;2024-01-30T11:50:13;9.00;100.00
15630;DHT22;7914;50.842;0.166;2024-01-30T11:52:39;9.00;100.00
15630;DHT22;7914;50.842;0.166;2024-01-30T11:55:06;9.10;100.00
15630;DHT22;7914;50.842;0.166;2024-01-30T11:57:33;9.00;100.00
15630;DHT22;7914;50.842;0.166;2024-01-30T12:00:01;9.10;100.00
15630;DHT22;7914;50.842;0.166;2024-01-30T12:02:29;8.90;100.00
15630;DHT22;7914;50.842;0.166;2024-01-30T12:04:54;9.00;100.00
15630;DHT22;7914;50.842;0.166;2024-01-30T12:07:20;9.10;100.00
15630;DHT22;7914;50.842;0.166;2024-01-30T12:09:53;9.00;100.00
15630;DHT22;7914;50.842;0.166;2024-01-30T12:12:22;9.00;100.00
15630;DHT22;7914;50.842;0.166;2024-01-30T12:14:48;9.10;100.00
15630;DHT22;7914;50.842;0.166;2024-01-30T12:17:29;9.10;100.00
15630;DHT22;7914;50.842;0.166;2024-01-30T12:20:15;8.90;100.00
15630;DHT22;7914;50.842;0.166;2024-01-30T12:22:44;9.00;100.00
15630;DHT22;7914;50.842;0.166;2024-01-30T12:25:14;8.80;100.00
15630;DHT22;7914;50.842;0.166;2024-01-30T12:27:46;8.80;100.00
15630;DHT22;7914;50.842;0.166;2024-01-30T12:30:13;8.80;100.00
15630;DHT22;7914;50.842;0.166;2024-01-30T12:32:41;8.80;100.00
15630;DHT22;7914;50.842;0.166;2024-01-30T12:35:12;8.70;100.00
15630;DHT22;7914;50.842;0.166;2024-01-30T12:37:38;8.70;100.00
15630;DHT22;7914;50.842;0.166;2024-01-30T12:40:05;8.60;100.00
15630;DHT22;7914;50.842;0.166;2024-01-30T12:42:31;8.60;100.00
15630;DHT22;7914;50.842;0.166;2024-01-30T12:44:58;8.60;100.00
15630;DHT22;7914;50.842;0.166;2024-01-30T12:47:24;8.60;100.00
15630;DHT22;7914;50.842;0.166;2024-01-30T12:49:50;8.60;100.00
15630;DHT22;7914;50.842;0.166;2024-01-30T12:52:19;8.60;100.00
15630;DHT22;7914;50.842;0.166;2024-01-30T12:54:46;8.60;100.00
15630;DHT22;7914;50.842;0.166;2024-01-30T12:57:12;8.60;100.00
15630;DHT22;7914;50.842;0.166;2024-01-30T12:59:37;8.60;100.00
15630;DHT22;7914;50.842;0.166;2024-01-30T13:02:04;8.60;100.00
15630;DHT22;7914;50.842;0.166;2024-01-30T13:04:30;8.50;100.00
15630;DHT22;7914;50.842;0.166;2024-01-30T13:06:56;8.50;100.00
15630;DHT22;7914;50.842;0.166;2024-01-30T13:09:23;8.60;100.00
15630;DHT22;7914;50.842;0.166;2024-01-30T13:11:49;8.60;100.00
15630;DHT22;7914;50.842;0.166;2024-01-30T13:14:15;8.60;100.00
15630;DHT22;7914;50.842;0.166;2024-01-30T13:16:41;8.70;100.00
15630;DHT22;7914;50.842;0.166;2024-01-30T13:19:06;8.80;100.00
15630;DHT22;7914;50.842;0.166;2024-01-30T13:21:32;8.80;100.00
15630;DHT22;7914;50.842;0.166;2024-01-30T13:23:58;8.80;100.00
15630;DHT22;7914;50.842;0.166;2024-01-30T13:26:23;8.80;100.00
15630;DHT22;7914;50.842;0.166;2024-01-30T13:28:49;8.80;100.00
15630;DHT22;7914;50.842;0.166;2024-01-30T13:31:16;8.80;100.00
15630;DHT22;7914;50.842;0.166;2024-01-30T13:33:41;8.70;100.00
15630;DHT22;7914;50.842;0.166;2024-01-30T13:36:08;8.60;100.00
15630;DHT22;7914;50.842;0.166;2024-01-30T13:38:35;8.70;100.00
15630;DHT22;7914;50.842;0.166;2024-01-30T13:41:01;8.60;100.00
15630;DHT22;7914;50.842;0.166;2024-01-30T13:43:26;8.70;100.00
15630;DHT22;7914;50.842;0.166;2024-01-30T13:45:52;8.70;100.00
15630;DHT22;7914;50.842;0.166;2024-01-30T13:48:18;8.70;100.00
15630;DHT22;7914;50.842;0.166;2024-01-30T13:50:44;8.60;100.00
15630;DHT22;7914;50.842;0.166;2024-01-30T13:53:10;8.50;100.00
15630;DHT22;7914;50.842;0.166;2024-01-30T13:55:35;8.60;100.00
15630;DHT22;7914;50.842;0.166;2024-01-30T13:58:01;8.50;100.00
15630;DHT22;7914;50.842;0.166;2024-01-30T14:00:27;8.60;100.00
15630;DHT22;7914;50.842;0.166;2024-01-30T14:02:53;8.60;100.00
15630;DHT22;7914;50.842;0.166;2024-01-30T14:05:24;8.60;100.00
15630;DHT22;7914;50.842;0.166;2024-01-30T14:07:51;8.60;100.00
15630;DHT22;7914;50.842;0.166;2024-01-30T14:10:17;8.60;100.00
15630;DHT22;7914;50.842;0.166;2024-01-30T14:12:43;8.60;100.00
15630;DHT22;7914;50.842;0.166;2024-01-30T14:15:10;8.50;100.00
15630;DHT22;7914;50.842;0.166;2024-01-30T14:17:38;8.50;100.00
15630;DHT22;7914;50.842;0.166;2024-01-30T14:20:04;8.60;100.00
15630;DHT22;7914;50.842;0.166;2024-01-30T14:22:31;8.60;100.00
15630;DHT22;7914;50.842;0.166;2024-01-30T14:24:56;8.60;100.00
15630;DHT22;7914;50.842;0.166;2024-01-30T14:27:22;8.60;100.00
15630;DHT22;7914;50.842;0.166;2024-01-30T14:29:48;8.60;100.00
15630;DHT22;7914;50.842;0.166;2024-01-30T14:32:14;8.60;100.00
15630;DHT22;7914;50.842;0.166;2024-01-30T14:34:39;8.60;100.00
15630;DHT22;7914;50.842;0.166;2024-01-30T14:37:05;8.50;100.00
15630;DHT22;7914;50.842;0.166;2024-01-30T14:39:31;8.60;100.00
15630;DHT22;7914;50.842;0.166;2024-01-30T14:41:58;8.60;100.00
15630;DHT22;7914;50.842;0.166;2024-01-30T14:44:24;8.60;100.00
15630;DHT22;7914;50.842;0.166;2024-01-30T14:46:50;8.70;100.00
15630;DHT22;7914;50.842;0.166;2024-01-30T14:49:15;8.80;100.00
15630;DHT22;7914;50.842;0.166;2024-01-30T14:51:42;8.70;100.00
15630;DHT22;7914;50.842;0.166;2024-01-30T14:54:07;8.60;100.00
15630;DHT22;7914;50.842;0.166;2024-01-30T14:56:33;8.60;100.00
15630;DHT22;7914;50.842;0.166;2024-01-30T14:58:59;8.70;100.00
15630;DHT22;7914;50.842;0.166;2024-01-30T15:01:24;8.60;100.00
15630;DHT22;7914;50.842;0.166;2024-01-30T15:03:50;8.60;100.00
15630;DHT22;7914;50.842;0.166;2024-01-30T15:06:21;8.60;100.00
15630;DHT22;7914;50.842;0.166;2024-01-30T15:08:50;8.60;100.00
15630;DHT22;7914;50.842;0.166;2024-01-30T15:11:15;8.60;100.00
15630;DHT22;7914;50.842;0.166;2024-01-30T15:13:41;8.60;100.00
15630;DHT22;7914;50.842;0.166;2024-01-30T15:16:07;8.50;100.00
15630;DHT22;7914;50.842;0.166;2024-01-30T15:18:33;8.60;100.00
15630;DHT22;7914;50.842;0.166;2024-01-30T15:21:04;8.60;100.00
15630;DHT22;7914;50.842;0.166;2024-01-30T15:23:30;8.60;100.00
15630;DHT22;7914;50.842;0.166;2024-01-30T15:25:56;8.60;100.00
15630;DHT22;7914;50.842;0.166;2024-01-30T15:28:35;8.50;100.00
15630;DHT22;7914;50.842;0.166;2024-01-30T15:31:02;8.50;100.00
15630;DHT22;7914;50.842;0.166;2024-01-30T15:33:28;8.50;100.00
15630;DHT22;7914;50.842;0.166;2024-01-30T15:35:54;8.40;100.00
15630;DHT22;7914;50.842;0.166;2024-01-30T15:38:20;8.50;100.00
15630;DHT22;7914;50.842;0.166;2024-01-30T15:40:47;8.50;100.00
15630;DHT22;7914;50.842;0.166;2024-01-30T15:43:12;8.50;100.00
15630;DHT22;7914;50.842;0.166;2024-01-30T15:45:38;8.40;100.00